Waitakeres Weather Go to January February March April May June
May Summaries Go to July August September October November December
Details 2007 2008 2009 2010 2011 2012 2013 2014 2015 2016 2017
Highest Temperature 20.8C 17.1C 18.2C 20.7C 21.9C 19.0C 21.5C 21.7C 21.7C 22.3C 19.8C
Lowest Temperature 8.7C 6.1C 4.2C 7.4C 6.0C 3.3C 2.9C 2.3C 4.1C 8.6C 3.0C
Average Temperature 15.2C 12.6C 11.4C 13.1C 14.2C 12.1C 12.8C 12.9C 12.6C 14.8C 12.5C
Highest Pressure 1030.0 hPa 1029.0 hPa 1022.0 hPa 1033.2 hPa 1031.3 hPa 1034.0 hPa 1033.4 hPa 1030.6 hPa 1033.2 hPa 1029.8 hPa 1032.7 hPa
Lowest Pressure 1005.0 hPa 993.0 hPa 992.0 hPa 994.2 hPa 998.9 hPa 993.2 hPa 987.5 hPa 1008.3 hPa 987.8 hPa 987.6 hPa 996.9 hPa
Total Rain - 106.0 mm 170.8 mm 279.2 mm 126.6 mm 115.8 mm 247.6 mm 90.4 mm 147.4 mm 146.0 mm 120.4 mm
Most Rain in 24 hrs - 33.3 mm 22.5 mm 80.2 mm 52.6 mm 31.6 mm 36.6 mm 15.8 mm 29.8 mm 17.0 mm 26.8 mm
Heaviest Rain       274.2 mm/hr 122.6 mm/hr 177.2 mm/hr 147.6 mm/hr 102.8 mm/hr 123.8 mm/hr 177.2 mm/hr 290.0 mm/hr
Number of Rain Days - 15 days 25 days 19 days 24 days 22 days 24 days 19 days 23 days 25 days 24 days
Highest Gust       33.8 km/hr 33.8 km/hr 22.5 km/hr 35.4 km/hr 29.0 km/hr 38.6 km/hr 30.6 km/hr 29.0 km/hr
Highest Average Wind       11.0 km/hr 11.8 km/hr 7.4 km/hr 8.0 km/hr 6.4 km/hr 8.0 km/hr 8.0 km/hr 9.7 km/hr
Highest Windrun       160.2 km 185.5 km 76.4 km 78.1 km 66.2 km 85.8 km 48.4 km 87.8 km
Back to Current Weather Go To Rainfall Data
Tabled Data - scroll down 2017 Temperature Pressure Rain Wind
for earlier years Maximum Minimum Average Maximum Minimum Day Total Maximum Rain Rate High Gust Highest Av Run
C C C hPa hPa mm mm/hr time km/h km/h km
01/05/2017 16.3C 7.0C 11.7C 1019.7 hPa 1001.5 hPa 5.0 mm 6.2 mm/hr 01:19 hrs 14.5 km/hr 3.2 km/hr 19.5 km
02/05/2017 17.9C 4.7C 9.5C 1024.5 hPa 1019.5 hPa 0.0 mm 0.0 mm/hr 00:00 hrs 12.9 km/hr 1.6 km/hr 3.7 km
03/05/2017 16.5C 5.8C 11.2C 1024.3 hPa 1015.4 hPa 0.8 mm 3.8 mm/hr 16:26 hrs 11.3 km/hr 3.2 km/hr 5.1 km
04/05/2017 16.9C 9.8C 13.6C 1019.3 hPa 1014.3 hPa 6.4 mm 7.6 mm/hr 01:56 hrs 24.1 km/hr 3.2 km/hr 33.5 km
05/05/2017 17.8C 8.6C 12.8C 1025.5 hPa 1019.2 hPa 1.2 mm 4.8 mm/hr 04:38 hrs 19.3 km/hr 1.6 km/hr 10.2 km
06/05/2017 19.0C 8.2C 11.7C 1028.6 hPa 1025.1 hPa 0.2 mm 0.0 mm/hr 00:00 hrs 6.4 km/hr 1.6 km/hr 1.4 km
07/05/2017 18.2C 9.1C 12.8C 1029.8 hPa 1027.9 hPa 0.0 mm 0.0 mm/hr 00:00 hrs 11.3 km/hr 3.2 km/hr 1.5 km
08/05/2017 19.3C 9.7C 12.5C 1029.6 hPa 1026.4 hPa 0.0 mm 0.0 mm/hr 00:00 hrs 9.7 km/hr 3.2 km/hr 3.4 km
09/05/2017 19.7C 9.7C 14.0C 1028.1 hPa 1025.5 hPa 0.0 mm 0.0 mm/hr 00:00 hrs 14.5 km/hr 3.2 km/hr 6.9 km
10/05/2017 19.4C 12.4C 15.3C 1027.6 hPa 1022.0 hPa 1.2 mm 11.4 mm/hr 13:36 hrs 16.1 km/hr 4.8 km/hr 16.0 km
11/05/2017 19.0C 15.6C 16.9C 1023.1 hPa 1007.8 hPa 7.0 mm 3.0 mm/hr 11:22 hrs 19.3 km/hr 4.8 km/hr 36.5 km
12/05/2017 17.8C 11.9C 14.9C 1008.5 hPa 996.9 hPa 26.8 mm 290.0 mm/hr 07:46 hrs 17.7 km/hr 4.8 km/hr 25.8 km
13/05/2017 15.2C 6.1C 10.6C 1023.5 hPa 1008.4 hPa 0.0 mm 0.0 mm/hr 00:00 hrs 11.3 km/hr 1.6 km/hr 6.2 km
14/05/2017 16.4C 5.7C 10.7C 1026.5 hPa 1023.3 hPa 0.0 mm 0.0 mm/hr 00:00 hrs 12.9 km/hr 1.6 km/hr 2.3 km
15/05/2017 17.8C 8.8C 12.2C 1027.9 hPa 1025.5 hPa 2.0 mm 2.8 mm/hr 05:57 hrs 6.4 km/hr 1.6 km/hr 0.3 km
16/05/2017 16.7C 8.9C 12.8C 1026.5 hPa 1020.6 hPa 12.0 mm 13.8 mm/hr 23:29 hrs 17.7 km/hr 4.8 km/hr 27.1 km
17/05/2017 19.8C 14.1C 16.2C 1020.7 hPa 1010.9 hPa 16.8 mm 25.8 mm/hr 09:00 hrs 27.4 km/hr 9.7 km/hr 77.5 km
18/05/2017 16.7C 13.0C 14.9C 1015.6 hPa 1007.4 hPa 6.6 mm 37.6 mm/hr 03:11 hrs 27.4 km/hr 6.4 km/hr 87.8 km
19/05/2017 15.7C 11.5C 13.4C 1018.1 hPa 1015.0 hPa 1.0 mm 1.4 mm/hr 09:34 hrs 19.3 km/hr 4.8 km/hr 48.6 km
20/05/2017 15.8C 9.1C 11.7C 1018.6 hPa 1010.2 hPa 8.4 mm 60.0 mm/hr 12:46 hrs 24.1 km/hr 4.8 km/hr 60.2 km
21/05/2017 14.4C 3.9C 8.9C 1030.5 hPa 1018.5 hPa 0.4 mm 0.0 mm/hr 00:00 hrs 14.5 km/hr 3.2 km/hr 4.6 km
22/05/2017 14.7C 3.0C 7.1C 1032.7 hPa 1029.6 hPa 0.2 mm 0.0 mm/hr 00:00 hrs 11.3 km/hr 1.6 km/hr 2.9 km
23/05/2017 15.2C 3.8C 9.4C 1030.0 hPa 1022.9 hPa 0.2 mm 0.0 mm/hr 00:00 hrs 11.3 km/hr 3.2 km/hr 4.9 km
24/05/2017 18.6C 8.7C 12.6C 1023.1 hPa 1017.9 hPa 8.8 mm 69.0 mm/hr 15:31 hrs 17.7 km/hr 3.2 km/hr 11.1 km
25/05/2017 17.5C 8.1C 11.0C 1022.0 hPa 1018.9 hPa 0.2 mm 0.0 mm/hr 00:00 hrs 8.0 km/hr 1.6 km/hr 4.2 km
26/05/2017 16.9C 9.4C 13.5C 1019.8 hPa 1014.0 hPa 1.0 mm 1.2 mm/hr 21:27 hrs 29.0 km/hr 8.0 km/hr 60.8 km
27/05/2017 18.3C 12.9C 15.0C 1014.1 hPa 1011.2 hPa 2.8 mm 9.4 mm/hr 04:56 hrs 6.4 km/hr 1.6 km/hr 0.1 km
28/05/2017 17.9C 10.4C 13.5C 1018.2 hPa 1013.1 hPa 3.8 mm 8.8 mm/hr 04:27 hrs 6.4 km/hr 1.6 km/hr 0.1 km
29/05/2017 18.4C 10.1C 13.2C 1020.6 hPa 1017.6 hPa 0.0 mm 0.0 mm/hr 00:00 hrs 4.8 km/hr 1.6 km/hr 0.3 km
30/05/2017 17.3C 8.9C 12.8C 1020.1 hPa 1013.8 hPa 0.4 mm 1.2 mm/hr 21:20 hrs 9.7 km/hr 3.2 km/hr 4.4 km
Back to top 31/05/2017 17.4C 9.2C 12.1C 1016.2 hPa 1011.8 hPa 7.2 mm 59.0 mm/hr 02:40 hrs 9.7 km/hr 3.2 km/hr 3.0 km
Tabled Data - scroll down 2016 Temperature Pressure Rain Wind
for earlier years Maximum Minimum Average Maximum Minimum Day Total Maximum Rain Rate High Gust Highest Av Run
C C C hPa hPa mm mm/hr time km/h km/h km
01/05/2016 19.6C 11.6C 15.2C 1029.8 hPa 1026.2 hPa 5.0 mm 39.0 mm/hr 15:26 hrs 14.5 km/hr 3.2 km/hr 7.3 km
02/05/2016 21.2C 12.7C 15.7C 1026.5 hPa 1022.6 hPa 0.0 mm 0.0 mm/hr 00:00 hrs 12.9 km/hr 3.2 km/hr 6.2 km
03/05/2016 22.3C 11.9C 15.7C 1024.9 hPa 1022.2 hPa 0.4 mm 0.0 mm/hr 00:00 hrs 9.7 km/hr 1.6 km/hr 0.2 km
04/05/2016 21.7C 11.3C 15.3C 1025.4 hPa 1022.2 hPa 0.0 mm 0.0 mm/hr 00:00 hrs 6.4 km/hr 1.6 km/hr 0.3 km
05/05/2016 20.8C 13.4C 16.5C 1024.4 hPa 1022.2 hPa 4.0 mm 4.4 mm/hr 15:47 hrs 12.9 km/hr 3.2 km/hr 3.9 km
06/05/2016 19.8C 13.7C 16.9C 1026.2 hPa 1023.9 hPa 2.0 mm 1.4 mm/hr 00:02 hrs 8.0 km/hr 0.0 km/hr 0.0 km
07/05/2016 21.8C 11.5C 15.7C 1027.6 hPa 1025.1 hPa 0.0 mm 0.0 mm/hr 00:00 hrs 6.4 km/hr 0.0 km/hr 0.0 km
08/05/2016 19.0C 11.6C 14.3C 1027.7 hPa 1023.5 hPa 0.0 mm 0.0 mm/hr 00:00 hrs 4.8 km/hr 0.0 km/hr 0.0 km
09/05/2016 22.0C 11.2C 15.2C 1023.7 hPa 1019.4 hPa 0.0 mm 0.0 mm/hr 00:00 hrs 8.0 km/hr 1.6 km/hr 1.1 km
10/05/2016 21.4C 10.4C 15.1C 1020.1 hPa 1015.4 hPa 0.0 mm 0.0 mm/hr 00:00 hrs 9.7 km/hr 1.6 km/hr 4.4 km
11/05/2016 20.7C 14.2C 17.8C 1015.5 hPa 1006.1 hPa 8.2 mm 42.6 mm/hr 16:26 hrs 22.5 km/hr 3.2 km/hr 10.3 km
12/05/2016 18.6C 13.4C 16.5C 1015.0 hPa 1005.8 hPa 2.6 mm 43.0 mm/hr 02:23 hrs 20.9 km/hr 3.2 km/hr 4.6 km
13/05/2016 20.3C 14.4C 17.3C 1017.3 hPa 1013.7 hPa 0.2 mm 0.0 mm/hr 00:00 hrs 19.3 km/hr 3.2 km/hr 16.8 km
14/05/2016 21.2C 12.3C 16.6C 1020.0 hPa 1016.9 hPa 0.4 mm 0.0 mm/hr 00:00 hrs 9.7 km/hr 1.6 km/hr 1.1 km
15/05/2016 19.6C 11.6C 14.8C 1019.1 hPa 1016.6 hPa 0.8 mm 10.0 mm/hr 05:37 hrs 9.7 km/hr 1.6 km/hr 0.1 km
16/05/2016 18.8C 13.3C 15.8C 1017.3 hPa 1008.2 hPa 3.0 mm 31.6 mm/hr 05:30 hrs 20.9 km/hr 4.8 km/hr 25.2 km
17/05/2016 17.8C 9.0C 13.7C 1017.9 hPa 1008.8 hPa 2.6 mm 81.2 mm/hr 02:01 hrs 19.3 km/hr 3.2 km/hr 28.7 km
18/05/2016 17.4C 9.0C 13.1C 1017.0 hPa 1007.5 hPa 6.4 mm 66.2 mm/hr 11:38 hrs 19.3 km/hr 4.8 km/hr 24.1 km
19/05/2016 18.5C 11.7C 15.1C 1010.8 hPa 1008.3 hPa 2.4 mm 53.6 mm/hr 00:42 hrs 17.7 km/hr 3.2 km/hr 17.7 km
20/05/2016 19.8C 12.2C 16.2C 1009.6 hPa 999.5 hPa 15.6 mm 177.2 mm/hr 23:11 hrs 27.4 km/hr 6.4 km/hr 31.1 km
21/05/2016 16.5C 9.7C 12.7C 1000.8 hPa 987.6 hPa 17.0 mm 153.6 mm/hr 15:42 hrs 29.0 km/hr 4.8 km/hr 11.3 km
22/05/2016 17.2C 9.1C 12.7C 1004.1 hPa 996.7 hPa 5.8 mm 22.4 mm/hr 00:43 hrs 20.9 km/hr 4.8 km/hr 29.9 km
23/05/2016 12.4C 8.6C 10.8C 998.9 hPa 996.2 hPa 11.6 mm 63.0 mm/hr 06:51 hrs 17.7 km/hr 3.2 km/hr 10.6 km
24/05/2016 17.7C 11.6C 14.5C 1001.7 hPa 996.5 hPa 8.4 mm 69.8 mm/hr 21:39 hrs 30.6 km/hr 6.4 km/hr 37.9 km
25/05/2016 17.6C 11.1C 13.6C 1000.4 hPa 996.8 hPa 16.0 mm 172.0 mm/hr 00:39 hrs 20.9 km/hr 4.8 km/hr 26.3 km
26/05/2016 17.5C 9.9C 13.3C 1008.2 hPa 999.8 hPa 3.0 mm 39.0 mm/hr 00:26 hrs 14.5 km/hr 3.2 km/hr 6.5 km
27/05/2016 16.6C 11.1C 13.3C 1010.8 hPa 1006.0 hPa 4.4 mm 20.0 mm/hr 08:01 hrs 12.9 km/hr 1.6 km/hr 4.5 km
28/05/2016 19.0C 11.9C 16.0C 1006.0 hPa 998.1 hPa 5.0 mm 24.4 mm/hr 05:53 hrs 30.6 km/hr 8.0 km/hr 48.4 km
29/05/2016 18.0C 11.5C 14.7C 1001.7 hPa 995.4 hPa 9.0 mm 67.4 mm/hr 16:45 hrs 22.5 km/hr 4.8 km/hr 19.8 km
30/05/2016 15.7C 9.2C 12.4C 1008.4 hPa 1001.7 hPa 2.4 mm 9.6 mm/hr 21:44 hrs 16.1 km/hr 1.6 km/hr 13.3 km
Back to top 31/05/2016 13.8C 8.9C 10.8C 1009.9 hPa 1005.9 hPa 9.8 mm 45.6 mm/hr 05:51 hrs 17.7 km/hr 3.2 km/hr 16.8 km
Tabled Data - scroll down 2015 Temperature Pressure Rain Wind
for earlier years Maximum Minimum Average Maximum Minimum Day Total Maximum Rain Rate High Gust Highest Av Run
C C C hPa hPa mm mm/hr time km/h km/h km
01/05/2015 18.9C 7.8C 12.2C 1030.4 hPa 1022.9 hPa 0.0 mm 0.0 mm/hr 00:00 hrs 6.4 km/hr 1.6 km/hr 0.4 km
02/05/2015 17.8C 9.4C 13.5C 1032.5 hPa 1029.6 hPa 0.2 mm 0.0 mm/hr 00:00 hrs 9.7 km/hr 0.0 km/hr 0.0 km
03/05/2015 18.2C 8.8C 13.1C 1033.2 hPa 1030.7 hPa 0.0 mm 0.0 mm/hr 00:00 hrs 0.0 km/hr 0.0 km/hr 0.0 km
04/05/2015 19.1C 8.9C 13.1C 1032.9 hPa 1029.6 hPa 0.0 mm 0.0 mm/hr 00:00 hrs 11.3 km/hr 3.2 km/hr 10.8 km
05/05/2015 20.7C 11.7C 14.6C 1030.6 hPa 1026.2 hPa 0.0 mm 0.0 mm/hr 00:00 hrs 17.7 km/hr 6.4 km/hr 18.9 km
06/05/2015 21.4C 11.3C 15.4C 1027.4 hPa 1020.9 hPa 0.0 mm 0.0 mm/hr 00:00 hrs 17.7 km/hr 6.4 km/hr 18.0 km
07/05/2015 21.7C 12.9C 17.0C 1021.3 hPa 1011.3 hPa 10.6 mm 12.6 mm/hr 18:45 hrs 20.9 km/hr 6.4 km/hr 24.9 km
08/05/2015 17.4C 13.0C 15.4C 1011.4 hPa 1005.4 hPa 20.2 mm 15.2 mm/hr 00:24 hrs 14.5 km/hr 4.8 km/hr 15.4 km
09/05/2015 17.7C 9.3C 13.4C 1012.8 hPa 1006.4 hPa 0.2 mm 0.0 mm/hr 00:00 hrs 12.9 km/hr 1.6 km/hr 5.4 km
10/05/2015 18.7C 8.8C 13.2C 1013.3 hPa 1011.4 hPa 0.8 mm 8.6 mm/hr 16:49 hrs 9.7 km/hr 1.6 km/hr 3.0 km
11/05/2015 19.4C 10.8C 14.4C 1012.4 hPa 1006.9 hPa 0.4 mm 0.0 mm/hr 00:00 hrs 16.1 km/hr 3.2 km/hr 12.0 km
12/05/2015 15.8C 11.7C 13.3C 1008.4 hPa 998.3 hPa 12.6 mm 52.8 mm/hr 12:00 hrs 17.7 km/hr 4.8 km/hr 37.8 km
13/05/2015 19.2C 10.6C 14.2C 1014.6 hPa 1008.3 hPa 0.0 mm 0.0 mm/hr 00:00 hrs 19.3 km/hr 3.2 km/hr 13.0 km
14/05/2015 18.0C 10.9C 14.8C 1013.7 hPa 1000.5 hPa 6.4 mm 7.0 mm/hr 21:31 hrs 24.1 km/hr 6.4 km/hr 30.3 km
15/05/2015 15.0C 9.7C 12.5C 1000.5 hPa 996.0 hPa 18.4 mm 123.8 mm/hr 10:17 hrs 22.5 km/hr 6.4 km/hr 31.5 km
16/05/2015 16.3C 7.6C 11.0C 1018.1 hPa 999.8 hPa 0.4 mm 0.0 mm/hr 00:00 hrs 14.5 km/hr 3.2 km/hr 5.0 km
17/05/2015 17.2C 8.7C 11.9C 1023.7 hPa 1018.1 hPa 3.2 mm 7.2 mm/hr 07:49 hrs 11.3 km/hr 3.2 km/hr 5.6 km
18/05/2015 16.3C 8.9C 12.5C 1023.8 hPa 1018.9 hPa 0.2 mm 0.0 mm/hr 00:00 hrs 22.5 km/hr 3.2 km/hr 30.7 km
19/05/2015 15.9C 9.2C 12.9C 1022.0 hPa 1018.0 hPa 2.8 mm 56.2 mm/hr 10:58 hrs 24.1 km/hr 3.2 km/hr 21.3 km
20/05/2015 15.4C 7.9C 11.5C 1023.6 hPa 1021.4 hPa 0.2 mm 0.0 mm/hr 00:00 hrs 6.4 km/hr 0.0 km/hr 0.0 km
21/05/2015 16.3C 9.4C 13.7C 1022.2 hPa 1013.1 hPa 7.0 mm 5.4 mm/hr 22:19 hrs 20.9 km/hr 3.2 km/hr 16.1 km
22/05/2015 15.8C 10.2C 13.1C 1016.0 hPa 1012.3 hPa 1.6 mm 14.8 mm/hr 01:27 hrs 12.9 km/hr 3.2 km/hr 11.3 km
23/05/2015 14.2C 10.2C 12.0C 1012.7 hPa 987.8 hPa 29.8 mm 40.4 mm/hr 16:35 hrs 24.1 km/hr 8.0 km/hr 44.4 km
24/05/2015 13.2C 10.4C 11.7C 1006.3 hPa 993.7 hPa 8.4 mm 63.2 mm/hr 09:16 hrs 29.0 km/hr 6.4 km/hr 85.8 km
25/05/2015 12.9C 8.2C 10.1C 1013.4 hPa 1006.0 hPa 8.4 mm 40.8 mm/hr 18:54 hrs 38.6 km/hr 6.4 km/hr 78.3 km
26/05/2015 12.9C 8.7C 10.3C 1015.4 hPa 1012.7 hPa 4.8 mm 56.8 mm/hr 16:12 hrs 20.9 km/hr 6.4 km/hr 66.6 km
27/05/2015 14.1C 5.4C 9.7C 1020.9 hPa 1012.5 hPa 0.4 mm 0.0 mm/hr 00:00 hrs 9.7 km/hr 1.6 km/hr 5.1 km
28/05/2015 15.7C 4.1C 7.7C 1029.5 hPa 1020.8 hPa 0.0 mm 0.0 mm/hr 00:00 hrs 8.0 km/hr 1.6 km/hr 3.9 km
29/05/2015 15.7C 4.7C 8.8C 1030.7 hPa 1027.5 hPa 0.2 mm 0.0 mm/hr 00:00 hrs 9.7 km/hr 1.6 km/hr 4.2 km
30/05/2015 15.8C 6.9C 10.9C 1027.7 hPa 1022.5 hPa 0.0 mm 0.0 mm/hr 00:00 hrs 19.3 km/hr 6.4 km/hr 23.9 km
Back to top 31/05/2015 14.6C 11.2C 12.7C 1022.6 hPa 1017.7 hPa 10.2 mm 32.6 mm/hr 07:17 hrs 16.1 km/hr 4.8 km/hr 32.2 km
Tabled Data - scroll down 2014 Temperature Pressure Rain Wind
for earlier years Maximum Minimum Average Maximum Minimum Day Total Maximum Rain Rate High Gust Highest Av Run
C C C hPa hPa mm mm/hr time km/h km/h km
01/05/2014 19.2C 7.7C 12.4C 1015.6 hPa 1013.2 hPa 0.0 mm 0.0 mm/hr 00:00 hrs 9.7 km/hr 1.6 km/hr 3.9 km
02/05/2014 17.7C 9.3C 12.6C 1015.7 hPa 1013.2 hPa 0.0 mm 0.0 mm/hr 00:00 hrs 9.7 km/hr 3.2 km/hr 2.9 km
03/05/2014 20.0C 9.7C 13.4C 1018.1 hPa 1013.9 hPa 0.2 mm 0.0 mm/hr 00:00 hrs 12.9 km/hr 4.8 km/hr 7.4 km
04/05/2014 21.7C 10.3C 14.7C 1020.7 hPa 1017.9 hPa 0.0 mm 0.0 mm/hr 00:00 hrs 12.9 km/hr 3.2 km/hr 11.7 km
05/05/2014 17.6C 14.2C 16.0C 1019.3 hPa 1014.3 hPa 8.0 mm 20.8 mm/hr 11:41 hrs 16.1 km/hr 4.8 km/hr 26.1 km
06/05/2014 20.4C 14.1C 16.6C 1018.3 hPa 1015.8 hPa 2.2 mm 52.6 mm/hr 18:16 hrs 11.3 km/hr 1.6 km/hr 6.9 km
07/05/2014 19.8C 14.2C 15.8C 1017.2 hPa 1011.8 hPa 9.2 mm 94.4 mm/hr 20:58 hrs 14.5 km/hr 4.8 km/hr 13.9 km
08/05/2014 18.9C 13.1C 15.3C 1013.3 hPa 1009.7 hPa 15.4 mm 63.2 mm/hr 23:21 hrs 11.3 km/hr 3.2 km/hr 9.6 km
09/05/2014 18.4C 10.8C 13.2C 1011.4 hPa 1008.4 hPa 8.0 mm 61.2 mm/hr 17:16 hrs 12.9 km/hr 4.8 km/hr 12.6 km
10/05/2014 17.2C 8.9C 11.7C 1016.9 hPa 1010.7 hPa 0.2 mm 0.0 mm/hr 00:00 hrs 8.0 km/hr 1.6 km/hr 4.4 km
11/05/2014 18.8C 8.5C 12.1C 1024.4 hPa 1016.8 hPa 0.4 mm 0.0 mm/hr 00:00 hrs 9.7 km/hr 1.6 km/hr 0.9 km
12/05/2014 18.9C 9.2C 13.1C 1025.6 hPa 1023.2 hPa 0.0 mm 0.0 mm/hr 00:00 hrs 12.9 km/hr 4.8 km/hr 6.5 km
13/05/2014 18.4C 9.6C 13.1C 1024.2 hPa 1019.3 hPa 2.2 mm 9.8 mm/hr 21:24 hrs 11.3 km/hr 3.2 km/hr 9.3 km
14/05/2014 16.0C 9.7C 11.9C 1019.6 hPa 1014.5 hPa 15.8 mm 102.8 mm/hr 15:19 hrs 11.3 km/hr 3.2 km/hr 17.1 km
15/05/2014 17.3C 8.3C 11.6C 1019.3 hPa 1015.6 hPa 1.2 mm 24.8 mm/hr 07:48 hrs 12.9 km/hr 3.2 km/hr 17.9 km
16/05/2014 16.6C 7.2C 10.5C 1025.1 hPa 1019.1 hPa 0.0 mm 0.0 mm/hr 00:00 hrs 8.0 km/hr 3.2 km/hr 8.5 km
17/05/2014 16.6C 7.2C 12.0C 1027.2 hPa 1023.7 hPa 0.0 mm 0.0 mm/hr 00:00 hrs 14.5 km/hr 3.2 km/hr 11.3 km
18/05/2014 19.3C 10.0C 13.1C 1027.2 hPa 1024.7 hPa 0.0 mm 0.0 mm/hr 00:00 hrs 8.0 km/hr 1.6 km/hr 0.3 km
19/05/2014 19.2C 9.4C 13.5C 1026.4 hPa 1024.3 hPa 0.0 mm 0.0 mm/hr 00:00 hrs 11.3 km/hr 1.6 km/hr 6.6 km
20/05/2014 18.2C 9.9C 13.0C 1025.3 hPa 1021.8 hPa 0.0 mm 0.0 mm/hr 00:00 hrs 8.0 km/hr 1.6 km/hr 2.4 km
21/05/2014 16.9C 10.3C 14.2C 1021.8 hPa 1013.8 hPa 1.4 mm 9.2 mm/hr 12:41 hrs 16.1 km/hr 3.2 km/hr 15.4 km
22/05/2014 16.3C 8.5C 12.9C 1017.2 hPa 1014.1 hPa 1.4 mm 37.6 mm/hr 02:51 hrs 20.9 km/hr 3.2 km/hr 17.4 km
23/05/2014 17.6C 10.8C 14.4C 1017.4 hPa 1014.2 hPa 0.4 mm 0.0 mm/hr 00:00 hrs 14.5 km/hr 3.2 km/hr 21.5 km
24/05/2014 18.0C 15.1C 16.4C 1014.6 hPa 1009.0 hPa 4.2 mm 81.2 mm/hr 21:23 hrs 29.0 km/hr 6.4 km/hr 66.2 km
25/05/2014 17.8C 12.4C 14.7C 1012.5 hPa 1008.5 hPa 7.2 mm 93.0 mm/hr 01:45 hrs 19.3 km/hr 4.8 km/hr 13.8 km
26/05/2014 14.2C 5.7C 11.4C 1022.9 hPa 1008.3 hPa 5.0 mm 54.4 mm/hr 07:02 hrs 24.1 km/hr 4.8 km/hr 40.6 km
27/05/2014 12.9C 2.4C 6.3C 1030.6 hPa 1022.9 hPa 0.0 mm 0.0 mm/hr 00:00 hrs 9.7 km/hr 3.2 km/hr 8.8 km
28/05/2014 14.6C 2.3C 6.8C 1029.8 hPa 1024.8 hPa 0.0 mm 0.0 mm/hr 00:00 hrs 9.7 km/hr 1.6 km/hr 3.7 km
29/05/2014 15.0C 6.5C 11.8C 1024.9 hPa 1013.0 hPa 1.4 mm 2.0 mm/hr 12:18 hrs 20.9 km/hr 4.8 km/hr 32.8 km
30/05/2014 15.9C 10.4C 13.5C 1016.5 hPa 1011.4 hPa 6.6 mm 22.4 mm/hr 03:07 hrs 12.9 km/hr 3.2 km/hr 9.7 km
Back to top 31/05/2014 15.7C 7.1C 10.6C 1021.2 hPa 1016.4 hPa 0.0 mm 0.0 mm/hr 00:00 hrs 9.7 km/hr 3.2 km/hr 8.1 km
Tabled Data - scroll down 2013 Temperature Pressure Rain Wind
for earlier years Maximum Minimum Average Maximum Minimum Day Total Maximum Rain Rate High Gust Highest Av Run
C C C hPa hPa mm mm/hr time km/h km/h km
01/05/2013 21.1C 10.7C 14.4C 1021.3 hPa 1018.1 hPa 0.0 mm 0.0 mm/hr 00:00 hrs 8.0 km/hr 3.2 km/hr 4.5 km
02/05/2013 20.8C 11.1C 15.5C 1019.9 hPa 1015.9 hPa 0.8 mm 2.4 mm/hr 05:58 hrs 12.9 km/hr 4.8 km/hr 11.9 km
03/05/2013 20.8C 12.1C 15.6C 1016.5 hPa 1013.6 hPa 0.2 mm 0.0 mm/hr 00:00 hrs 12.9 km/hr 3.2 km/hr 18.0 km
04/05/2013 19.1C 12.3C 15.0C 1013.7 hPa 999.0 hPa 35.4 mm 125.2 mm/hr 14:03 hrs 22.5 km/hr 6.4 km/hr 35.2 km
05/05/2013 16.1C 11.0C 13.0C 999.0 hPa 987.5 hPa 15.2 mm 116.4 mm/hr 22:20 hrs 32.2 km/hr 8.0 km/hr 55.6 km
06/05/2013 14.8C 11.2C 13.1C 1002.2 hPa 988.7 hPa 32.8 mm 147.6 mm/hr 13:34 hrs 35.4 km/hr 8.0 km/hr 78.1 km
07/05/2013 19.4C 9.6C 12.9C 1023.0 hPa 1002.2 hPa 0.0 mm 0.0 mm/hr 00:00 hrs 11.3 km/hr 3.2 km/hr 8.7 km
08/05/2013 13.6C 9.7C 12.1C 1025.3 hPa 1022.9 hPa 19.2 mm 37.4 mm/hr 15:01 hrs 12.9 km/hr 4.8 km/hr 26.8 km
09/05/2013 14.0C 10.9C 12.5C 1024.5 hPa 1013.1 hPa 5.6 mm 44.6 mm/hr 16:14 hrs 8.0 km/hr 1.6 km/hr 6.2 km
10/05/2013 16.4C 7.6C 11.5C 1014.7 hPa 1008.0 hPa 11.6 mm 74.8 mm/hr 11:57 hrs 14.5 km/hr 4.8 km/hr 11.3 km
11/05/2013 15.9C 7.7C 10.6C 1028.6 hPa 1014.7 hPa 3.4 mm 88.0 mm/hr 00:56 hrs 16.1 km/hr 3.2 km/hr 18.2 km
12/05/2013 17.9C 7.1C 11.4C 1031.3 hPa 1028.4 hPa 0.0 mm 0.0 mm/hr 00:00 hrs 16.1 km/hr 4.8 km/hr 20.4 km
13/05/2013 20.7C 8.8C 13.1C 1031.0 hPa 1024.6 hPa 0.0 mm 0.0 mm/hr 00:00 hrs 6.4 km/hr 3.2 km/hr 5.1 km
14/05/2013 21.5C 9.3C 13.8C 1024.9 hPa 1017.9 hPa 0.2 mm 0.0 mm/hr 00:00 hrs 6.4 km/hr 1.6 km/hr 4.1 km
15/05/2013 19.6C 9.9C 13.8C 1017.9 hPa 1013.9 hPa 0.0 mm 0.0 mm/hr 00:00 hrs 6.4 km/hr 1.6 km/hr 1.6 km
16/05/2013 19.1C 11.9C 14.9C 1018.4 hPa 1016.4 hPa 0.0 mm 0.0 mm/hr 00:00 hrs 14.5 km/hr 4.8 km/hr 29.5 km
17/05/2013 16.3C 13.6C 15.3C 1017.4 hPa 1005.7 hPa 20.0 mm 23.0 mm/hr 15:39 hrs 12.9 km/hr 4.8 km/hr 37.2 km
18/05/2013 17.9C 13.1C 15.1C 1005.8 hPa 1001.2 hPa 6.2 mm 35.6 mm/hr 06:56 hrs 12.9 km/hr 3.2 km/hr 21.6 km
19/05/2013 18.7C 12.5C 14.9C 1006.7 hPa 1002.5 hPa 9.6 mm 129.4 mm/hr 23:03 hrs 22.5 km/hr 4.8 km/hr 38.6 km
20/05/2013 19.5C 10.8C 13.3C 1009.2 hPa 1006.4 hPa 0.0 mm 0.0 mm/hr 00:00 hrs 6.4 km/hr 1.6 km/hr 1.1 km
21/05/2013 18.4C 10.2C 13.1C 1008.1 hPa 1005.0 hPa 2.0 mm 14.2 mm/hr 15:23 hrs 14.5 km/hr 4.8 km/hr 13.1 km
22/05/2013 13.8C 10.5C 11.9C 1006.0 hPa 997.7 hPa 13.4 mm 65.4 mm/hr 12:04 hrs 16.1 km/hr 3.2 km/hr 13.9 km
23/05/2013 16.1C 11.8C 13.4C 1008.9 hPa 997.2 hPa 8.6 mm 94.4 mm/hr 14:55 hrs 19.3 km/hr 4.8 km/hr 54.1 km
24/05/2013 17.6C 7.9C 11.7C 1022.0 hPa 1008.8 hPa 1.4 mm 5.8 mm/hr 01:22 hrs 9.7 km/hr 3.2 km/hr 5.4 km
25/05/2013 15.9C 9.2C 12.2C 1021.5 hPa 1005.9 hPa 11.0 mm 15.6 mm/hr 23:49 hrs 12.9 km/hr 4.8 km/hr 19.4 km
26/05/2013 17.9C 10.3C 14.7C 1008.7 hPa 1005.0 hPa 2.6 mm 8.8 mm/hr 02:03 hrs 22.5 km/hr 4.8 km/hr 28.9 km
27/05/2013 17.2C 9.6C 13.0C 1008.2 hPa 1001.2 hPa 5.6 mm 74.8 mm/hr 23:44 hrs 16.1 km/hr 4.8 km/hr 30.0 km
28/05/2013 10.6C 3.8C 6.9C 1012.3 hPa 1000.1 hPa 36.6 mm 49.2 mm/hr 13:33 hrs 22.5 km/hr 6.4 km/hr 57.8 km
29/05/2013 13.3C 2.9C 7.0C 1030.6 hPa 1011.9 hPa 1.0 mm 2.4 mm/hr 02:03 hrs 12.9 km/hr 3.2 km/hr 14.8 km
30/05/2013 14.5C 6.7C 9.6C 1033.4 hPa 1030.5 hPa 2.8 mm 21.0 mm/hr 15:41 hrs 4.8 km/hr 1.6 km/hr 2.2 km
Back to top 31/05/2013 13.9C 7.8C 10.4C 1033.3 hPa 1030.1 hPa 2.4 mm 16.6 mm/hr 01:20 hrs 8.0 km/hr 1.6 km/hr 1.0 km
Tabled Data - scroll down 2012 Temperature Pressure Rain Wind
for earlier years Maximum Minimum Average Maximum Minimum Day Total Maximum Rain Rate High Gust Highest Av Run
C C C hPa hPa mm mm/hr time km/h km/h km
01/05/2012 16.8C 8.7C 12.2C 1022.8 hPa 1016.5 hPa 1.6 mm 35.4 mm/hr 10:38 hrs 12.9 km/hr 4.0 km/hr 20.6 km
02/05/2012 15.4C 6.0C 9.9C 1029.6 hPa 1022.6 hPa 0.0 mm 0.0 mm/hr 00:00 hrs 20.9 km/hr 4.1 km/hr 22.7 km
03/05/2012 15.1C 4.1C 9.0C 1032.2 hPa 1029.4 hPa 0.0 mm 0.0 mm/hr 00:00 hrs 16.1 km/hr 3.7 km/hr 18.4 km
04/05/2012 18.2C 6.0C 10.7C 1033.9 hPa 1030.8 hPa 0.0 mm 0.0 mm/hr 00:00 hrs 9.7 km/hr 2.9 km/hr 11.2 km
05/05/2012 19.0C 7.3C 11.7C 1034.0 hPa 1030.9 hPa 0.0 mm 0.0 mm/hr 00:00 hrs 12.9 km/hr 3.4 km/hr 13.2 km
06/05/2012 18.4C 7.6C 12.3C 1033.5 hPa 1028.6 hPa 0.0 mm 0.0 mm/hr 00:00 hrs 19.3 km/hr 4.7 km/hr 38.0 km
07/05/2012 17.9C 11.3C 13.7C 1029.0 hPa 1019.5 hPa 0.0 mm 0.0 mm/hr 00:00 hrs 20.9 km/hr 6.2 km/hr 66.0 km
08/05/2012 17.4C 13.2C 15.3C 1019.6 hPa 1010.7 hPa 31.6 mm 34.4 mm/hr 17:29 hrs 19.3 km/hr 7.1 km/hr 76.4 km
09/05/2012 17.9C 11.9C 14.9C 1010.9 hPa 1006.4 hPa 7.2 mm 18.8 mm/hr 02:43 hrs 11.3 km/hr 3.5 km/hr 14.2 km
10/05/2012 18.4C 11.9C 14.5C 1008.6 hPa 1005.0 hPa 0.4 mm 0.0 mm/hr 00:00 hrs 11.3 km/hr 2.4 km/hr 15.4 km
11/05/2012 17.2C 11.5C 13.6C 1011.0 hPa 1008.4 hPa 1.2 mm 7.8 mm/hr 06:18 hrs 16.1 km/hr 3.8 km/hr 43.1 km
12/05/2012 18.1C 11.0C 13.8C 1014.3 hPa 1010.5 hPa 0.0 mm 0.0 mm/hr 00:00 hrs 16.1 km/hr 3.9 km/hr 38.1 km
13/05/2012 19.0C 12.1C 15.3C 1014.2 hPa 1012.0 hPa 0.6 mm 2.6 mm/hr 08:02 hrs 19.3 km/hr 5.0 km/hr 41.7 km
14/05/2012 18.4C 11.8C 14.7C 1012.2 hPa 998.3 hPa 12.6 mm 65.4 mm/hr 16:00 hrs 22.5 km/hr 7.4 km/hr 56.9 km
15/05/2012 14.6C 10.7C 12.5C 998.3 hPa 994.0 hPa 16.8 mm 81.2 mm/hr 02:20 hrs 19.3 km/hr 5.5 km/hr 62.8 km
16/05/2012 14.6C 8.0C 10.9C 1002.3 hPa 993.2 hPa 15.0 mm 177.2 mm/hr 02:28 hrs 19.3 km/hr 5.4 km/hr 61.2 km
17/05/2012 15.4C 7.2C 11.6C 1012.0 hPa 1002.3 hPa 3.0 mm 39.4 mm/hr 12:33 hrs 19.3 km/hr 5.4 km/hr 58.0 km
18/05/2012 16.2C 10.9C 12.7C 1013.0 hPa 1009.9 hPa 4.0 mm 45.2 mm/hr 15:17 hrs 17.7 km/hr 4.5 km/hr 63.4 km
19/05/2012 15.6C 7.2C 11.2C 1014.0 hPa 1010.7 hPa 2.4 mm 44.8 mm/hr 10:44 hrs 17.7 km/hr 4.7 km/hr 38.3 km
20/05/2012 15.9C 7.6C 10.5C 1016.1 hPa 1013.5 hPa 2.8 mm 20.2 mm/hr 02:23 hrs 12.9 km/hr 3.6 km/hr 14.6 km
21/05/2012 16.1C 7.6C 11.3C 1020.3 hPa 1015.9 hPa 0.4 mm 2.2 mm/hr 07:09 hrs 0.0 km/hr 0.0 km/hr 0.0 km
22/05/2012 15.9C 6.1C 9.7C 1027.8 hPa 1020.2 hPa 0.0 mm 0.0 mm/hr 00:00 hrs 9.7 km/hr 3.1 km/hr 4.2 km
23/05/2012 16.7C 5.5C 10.2C 1029.8 hPa 1027.7 hPa 0.0 mm 0.0 mm/hr 00:00 hrs 9.7 km/hr 1.8 km/hr 4.5 km
24/05/2012 17.2C 7.7C 11.2C 1030.5 hPa 1027.9 hPa 0.2 mm 0.0 mm/hr 00:00 hrs 9.7 km/hr 2.7 km/hr 9.7 km
25/05/2012 17.2C 7.1C 11.8C 1028.8 hPa 1026.0 hPa 0.2 mm 0.0 mm/hr 00:00 hrs 9.7 km/hr 3.2 km/hr 14.4 km
26/05/2012 15.8C 9.4C 12.2C 1028.2 hPa 1022.7 hPa 0.2 mm 0.0 mm/hr 00:00 hrs 6.4 km/hr 2.2 km/hr 6.7 km
27/05/2012 15.7C 10.3C 13.1C 1022.7 hPa 1014.0 hPa 2.8 mm 5.4 mm/hr 19:53 hrs 11.3 km/hr 3.3 km/hr 16.8 km
28/05/2012 15.0C 11.4C 14.0C 1014.1 hPa 1010.9 hPa 10.2 mm 10.8 mm/hr 06:04 hrs 12.9 km/hr 3.2 km/hr 15.9 km
29/05/2012 14.1C 3.9C 10.0C 1020.0 hPa 1013.1 hPa 0.4 mm 1.8 mm/hr 04:26 hrs 14.5 km/hr 3.7 km/hr 22.9 km
30/05/2012 14.1C 3.3C 8.5C 1020.6 hPa 1017.6 hPa 1.4 mm 8.2 mm/hr 19:12 hrs 8.0 km/hr 2.3 km/hr 9.2 km
Back to top 31/05/2012 16.2C 9.3C 11.9C 1022.6 hPa 1016.2 hPa 0.8 mm 0.8 mm/hr 04:03 hrs 14.5 km/hr 4.5 km/hr 31.8 km
2011 Temperature Pressure Rain Wind
Maximum Minimum Average Maximum Minimum Day Total Maximum Rain Rate High Gust Highest Av Run
C C C hPa hPa mm mm/hr time km/h km/h km
01/05/2011 17.6C 13.6C 15.7C 1024.7 hPa 1016.1 hPa 7.2 mm 5.4 mm/hr 23:33 hrs 33.8 km/hr 11.8 km/hr 185.5 km
02/05/2011 17.1C 13.8C 15.5C 1016.9 hPa 1010.6 hPa 9.6 mm 8.6 mm/hr 00:12 hrs 30.6 km/hr 10.6 km/hr 151.0 km
03/05/2011 18.3C 13.9C 16.8C 1012.0 hPa 1009.2 hPa 4.0 mm 13.6 mm/hr 12:47 hrs 14.5 km/hr 4.5 km/hr 29.2 km
04/05/2011 19.0C 12.7C 15.5C 1013.4 hPa 1011.6 hPa 0.0 mm 0.0 mm/hr 00:00 hrs 12.9 km/hr 4.0 km/hr 10.3 km
05/05/2011 21.8C 12.7C 15.7C 1012.0 hPa 1007.3 hPa 0.0 mm 0.0 mm/hr 00:00 hrs 8.0 km/hr 3.3 km/hr 8.6 km
06/05/2011 20.1C 14.7C 16.2C 1007.6 hPa 1000.7 hPa 4.6 mm 39.2 mm/hr 14:05 hrs 16.1 km/hr 4.7 km/hr 36.5 km
07/05/2011 17.7C 12.0C 14.6C 1003.7 hPa 998.9 hPa 10.2 mm 29.4 mm/hr 01:18 hrs 20.9 km/hr 6.1 km/hr 50.7 km
08/05/2011 19.6C 11.3C 14.9C 1013.5 hPa 1003.7 hPa 0.2 mm 0.0 mm/hr 00:00 hrs 17.7 km/hr 6.5 km/hr 35.3 km
09/05/2011 19.9C 11.5C 14.0C 1022.4 hPa 1013.0 hPa 0.4 mm 0.0 mm/hr 00:00 hrs 9.7 km/hr 3.3 km/hr 6.3 km
10/05/2011 19.3C 11.8C 14.6C 1024.4 hPa 1019.9 hPa 0.0 mm 0.0 mm/hr 00:00 hrs 11.3 km/hr 4.4 km/hr 36.4 km
11/05/2011 19.1C 13.7C 17.0C 1019.9 hPa 1009.3 hPa 14.2 mm 122.6 mm/hr 22:23 hrs 22.5 km/hr 8.1 km/hr 94.8 km
12/05/2011 21.9C 12.9C 16.6C 1013.7 hPa 1009.0 hPa 0.0 mm 0.0 mm/hr 00:00 hrs 9.7 km/hr 3.3 km/hr 13.5 km
13/05/2011 20.6C 14.3C 16.5C 1009.1 hPa 1005.0 hPa 0.2 mm 0.0 mm/hr 00:00 hrs 19.3 km/hr 6.7 km/hr 32.7 km
14/05/2011 19.7C 12.8C 15.6C 1010.6 hPa 1006.6 hPa 1.6 mm 22.2 mm/hr 00:38 hrs 11.3 km/hr 3.7 km/hr 29.4 km
15/05/2011 17.8C 11.1C 13.6C 1010.0 hPa 1003.8 hPa 6.8 mm 102.8 mm/hr 13:54 hrs 20.9 km/hr 7.4 km/hr 50.4 km
16/05/2011 17.6C 11.8C 14.8C 1012.2 hPa 1007.6 hPa 1.6 mm 22.2 mm/hr 13:04 hrs 22.5 km/hr 6.1 km/hr 84.4 km
17/05/2011 18.3C 12.7C 15.1C 1012.3 hPa 1009.2 hPa 1.4 mm 19.4 mm/hr 17:37 hrs 22.5 km/hr 5.5 km/hr 74.9 km
18/05/2011 14.8C 6.1C 10.9C 1027.1 hPa 1011.6 hPa 2.0 mm 18.0 mm/hr 05:39 hrs 17.7 km/hr 5.7 km/hr 48.2 km
19/05/2011 16.5C 6.0C 11.5C 1027.0 hPa 1024.7 hPa 2.6 mm 9.6 mm/hr 19:57 hrs 20.9 km/hr 5.9 km/hr 31.8 km
20/05/2011 16.3C 9.1C 12.4C 1027.8 hPa 1025.2 hPa 1.4 mm 3.6 mm/hr 21:44 hrs 8.0 km/hr 2.5 km/hr 7.9 km
21/05/2011 17.1C 9.8C 12.8C 1030.2 hPa 1027.5 hPa 0.4 mm 0.0 mm/hr 00:00 hrs 11.3 km/hr 3.8 km/hr 13.0 km
22/05/2011 18.6C 9.6C 12.5C 1031.3 hPa 1028.7 hPa 0.0 mm 0.0 mm/hr 00:00 hrs 6.4 km/hr 1.4 km/hr 3.7 km
23/05/2011 17.7C 9.6C 12.1C 1029.4 hPa 1024.5 hPa 0.2 mm 0.0 mm/hr 00:00 hrs 6.4 km/hr 1.3 km/hr 2.5 km
24/05/2011 18.2C 9.0C 12.9C 1025.2 hPa 1017.9 hPa 0.0 mm 0.0 mm/hr 00:00 hrs 11.3 km/hr 3.2 km/hr 14.9 km
25/05/2011 18.0C 12.2C 15.1C 1017.9 hPa 1008.5 hPa 1.4 mm 1.4 mm/hr 19:31 hrs 20.9 km/hr 7.4 km/hr 49.9 km
26/05/2011 18.0C 15.8C 16.8C 1008.7 hPa 1000.6 hPa 52.6 mm 67.0 mm/hr 07:31 hrs 30.6 km/hr 8.7 km/hr 59.3 km
27/05/2011 16.9C 10.4C 14.3C 1008.7 hPa 1001.3 hPa 1.4 mm 21.4 mm/hr 12:24 hrs 12.9 km/hr 4.1 km/hr 31.3 km
28/05/2011 17.1C 10.8C 13.3C 1021.0 hPa 1008.7 hPa 1.2 mm 25.2 mm/hr 20:01 hrs 11.3 km/hr 4.2 km/hr 28.4 km
29/05/2011 15.3C 8.1C 10.6C 1026.5 hPa 1021.0 hPa 0.6 mm 0.0 mm/hr 00:00 hrs 9.7 km/hr 2.4 km/hr 6.2 km
30/05/2011 14.7C 9.0C 10.9C 1026.3 hPa 1023.0 hPa 0.8 mm 2.4 mm/hr 22:51 hrs 9.7 km/hr 2.5 km/hr 4.2 km
Back to top 31/05/2011 15.2C 8.4C 10.8C 1024.6 hPa 1021.7 hPa 4.4 mm 7.0 mm/hr 16:05 hrs 8.0 km/hr 4.1 km/hr 4.1 km
2010 Temperature Pressure Rain Wind
Maximum Minimum Average Maximum Minimum Day Total Maximum Rain Rate High Gust Highest Av Run
C C C hPa hPa mm mm/hr time km/h km/h km
01/05/2010 17.7C 10.2C 14.1C 1019.2 hPa 1012.5 hPa 13.6 mm 110.8 mm/hr 00:58 hrs 12.9 km/hr 5.6 km/hr 37.8 km
02/05/2010 18.9C 8.4C 11.8C 1027.4 hPa 1019.2 hPa 0.0 mm 0.0 mm/hr 00:00 hrs 6.4 km/hr 2.1 km/hr 4.6 km
03/05/2010 16.8C 8.0C 11.5C 1027.8 hPa 1025.0 hPa 1.6 mm 5.2 mm/hr 18:28 hrs 9.7 km/hr 3.4 km/hr 10.1 km
04/05/2010 17.5C 9.4C 13.4C 1028.8 hPa 1024.4 hPa 1.2 mm 12.2 mm/hr 09:41 hrs 16.1 km/hr 5.6 km/hr 28.9 km
05/05/2010 19.2C 7.9C 12.0C 1033.2 hPa 1028.8 hPa 0.0 mm 0.0 mm/hr 00:00 hrs 9.7 km/hr 3.7 km/hr 20.7 km
06/05/2010 17.9C 7.8C 12.1C 1033.2 hPa 1027.0 hPa 0.0 mm 0.0 mm/hr 00:00 hrs 16.1 km/hr 5.3 km/hr 23.2 km
07/05/2010 16.9C 12.0C 13.9C 1027.2 hPa 1018.9 hPa 0.0 mm 0.0 mm/hr 00:00 hrs 14.5 km/hr 4.3 km/hr 20.2 km
08/05/2010 16.4C 12.1C 14.1C 1019.1 hPa 1011.4 hPa 0.0 mm 0.0 mm/hr 00:00 hrs 17.7 km/hr 5.7 km/hr 60.8 km
09/05/2010 19.0C 13.4C 15.4C 1015.9 hPa 1011.2 hPa 0.2 mm 0.0 mm/hr 00:00 hrs 16.1 km/hr 5.7 km/hr 66.6 km
10/05/2010 20.2C 11.1C 14.7C 1019.7 hPa 1015.8 hPa 0.0 mm 0.0 mm/hr 00:00 hrs 17.7 km/hr 7.6 km/hr 57.0 km
11/05/2010 18.8C 11.2C 15.7C 1019.8 hPa 1015.3 hPa 0.0 mm 0.0 mm/hr 00:00 hrs 22.5 km/hr 8.1 km/hr 121.1 km
12/05/2010 17.1C 15.2C 16.4C 1015.4 hPa 1005.9 hPa 44.8 mm 192.0 mm/hr 19:03 hrs 30.6 km/hr 11.0 km/hr 160.2 km
13/05/2010 20.7C 13.3C 16.3C 1009.2 hPa 1006.5 hPa 0.0 mm 0.0 mm/hr 00:00 hrs 11.3 km/hr 4.5 km/hr 12.6 km
14/05/2010 20.3C 11.7C 15.6C 1008.7 hPa 1005.5 hPa 0.0 mm 0.0 mm/hr 00:00 hrs 17.7 km/hr 5.7 km/hr 38.1 km
15/05/2010 17.9C 11.9C 13.9C 1005.5 hPa 999.8 hPa 7.4 mm 18.0 mm/hr 20:06 hrs 17.7 km/hr 6.3 km/hr 22.6 km
16/05/2010 17.4C 10.5C 13.3C 1005.1 hPa 1001.0 hPa 2.6 mm 9.0 mm/hr 04:55 hrs 19.3 km/hr 6.1 km/hr 38.2 km
17/05/2010 19.7C 9.7C 13.1C 1008.5 hPa 1005.0 hPa 0.8 mm 7.6 mm/hr 02:40 hrs 9.7 km/hr 4.4 km/hr 13.2 km
18/05/2010 17.0C 9.4C 11.9C 1012.1 hPa 1007.1 hPa 16.2 mm 230.4 mm/hr 15:30 hrs 9.7 km/hr 3.4 km/hr 8.7 km
19/05/2010 19.4C 9.3C 12.3C 1019.5 hPa 1012.1 hPa 0.0 mm 0.0 mm/hr 00:00 hrs 6.4 km/hr 1.5 km/hr 2.7 km
20/05/2010 13.0C 9.1C 11.2C 1019.3 hPa 1006.8 hPa 7.8 mm 2.8 mm/hr 21:15 hrs 12.9 km/hr 4.7 km/hr 23.6 km
21/05/2010 13.3C 10.4C 11.6C 1017.6 hPa 1005.3 hPa 80.2 mm 34.2 mm/hr 07:12 hrs 8.0 km/hr 3.1 km/hr 15.3 km
22/05/2010 17.5C 8.6C 11.6C 1022.6 hPa 1017.4 hPa 0.0 mm 0.0 mm/hr 00:00 hrs 6.4 km/hr 1.6 km/hr 2.8 km
23/05/2010 14.2C 8.1C 11.2C 1022.8 hPa 1012.1 hPa 7.2 mm 6.6 mm/hr 19:56 hrs 12.9 km/hr 5.2 km/hr 33.0 km
24/05/2010 16.4C 10.4C 14.2C 1012.1 hPa 1001.6 hPa 34.6 mm 44.6 mm/hr 01:18 hrs 17.7 km/hr 4.3 km/hr 32.7 km
25/05/2010 15.2C 10.1C 12.3C 1001.7 hPa 994.2 hPa 37.8 mm 274.2 mm/hr 21:19 hrs 33.8 km/hr 8.6 km/hr 58.4 km
26/05/2010 16.9C 11.3C 13.4C 1003.5 hPa 995.2 hPa 6.8 mm 81.8 mm/hr 01:04 hrs 22.5 km/hr 5.3 km/hr 55.2 km
27/05/2010 16.1C 11.8C 13.4C 1008.5 hPa 1003.4 hPa 1.6 mm 12.2 mm/hr 01:15 hrs 11.3 km/hr 4.4 km/hr 19.6 km
28/05/2010 15.8C 9.4C 12.9C 1009.3 hPa 1005.1 hPa 4.8 mm 7.6 mm/hr 14:17 hrs 8.0 km/hr 2.2 km/hr 11.8 km
29/05/2010 14.9C 9.1C 11.7C 1014.6 hPa 1009.1 hPa 4.6 mm 31.2 mm/hr 19:39 hrs 14.5 km/hr 5.2 km/hr 40.0 km
30/05/2010 16.3C 7.4C 10.5C 1022.1 hPa 1014.0 hPa 0.0 mm 0.0 mm/hr 00:00 hrs 6.4 km/hr 1.6 km/hr 2.9 km
Back to top 31/05/2010 15.0C 7.7C 11.1C 1024.1 hPa 1019.5 hPa 5.4 mm 8.0 mm/hr 22:27 hrs 16.1 km/hr 5.3 km/hr 51.0 km
2009 Temperature Pressure Rain Wind
Maximum Minimum Average Maximum Minimum Day Total Maximum Rain Rate High Gust Highest Av Run
C C C hPa hPa mm mm/hr time km/h km/h km
01/05/2009 17.2C 11.0C 14.1C 1018.0 hPa 1016.0 hPa 1.3 mm          
02/05/2009 10.5C 9.0C 9.8C 1016.0 hPa 1015.0 hPa 18.9 mm          
03/05/2009 15.4C 7.8C 11.6C 1017.0 hPa 1015.0 hPa 0.4 mm          
04/05/2009 15.6C 7.9C 11.8C 1015.0 hPa 1014.0 hPa 0.0 mm          
05/05/2009 16.0C 9.1C 12.6C 1015.0 hPa 1010.0 hPa 2.7 mm          
06/05/2009 15.8C 11.5C 13.7C 1009.0 hPa 1008.0 hPa 6.7 mm          
07/05/2009 14.5C 8.0C 11.3C 1009.0 hPa 1008.0 hPa 6.3 mm          
08/05/2009 12.5C 10.0C 11.3C 1002.0 hPa 993.0 hPa 22.5 mm          
09/05/2009 13.4C 7.6C 10.5C 996.0 hPa 996.0 hPa 4.9 mm          
10/05/2009 13.7C 9.4C 11.6C 995.0 hPa 993.0 hPa 17.5 mm          
11/05/2009 11.9C 7.6C 9.8C 993.0 hPa 992.0 hPa 13.0 mm          
12/05/2009 12.2C 8.0C 10.1C 999.0 hPa 996.0 hPa 10.8 mm          
13/05/2009 14.6C 6.8C 10.7C 1007.0 hPa 1005.0 hPa 6.7 mm          
14/05/2009 15.0C 9.1C 12.1C 1011.0 hPa 1009.0 hPa 2.7 mm          
15/05/2009 17.0C 10.0C 13.5C 1012.0 hPa 1011.0 hPa 1.4 mm          
16/05/2009 18.0C 11.5C 14.8C 1014.0 hPa 1013.0 hPa 0.0 mm          
17/05/2009 18.2C 12.6C 15.4C 1013.0 hPa 1012.0 hPa 7.6 mm          
18/05/2009 16.2C 11.4C 13.8C 1011.0 hPa 1008.0 hPa 4.9 mm          
19/05/2009 15.0C 8.7C 11.9C 1012.0 hPa 1010.0 hPa 5.8 mm          
20/05/2009 11.9C 8.6C 10.3C 1014.0 hPa 1010.0 hPa 5.0 mm          
21/05/2009 10.3C 4.2C 7.3C 1018.0 hPa 1014.0 hPa 2.2 mm          
22/05/2009 12.8C 4.2C 8.5C 1022.0 hPa 1018.0 hPa 6.3 mm          
23/05/2009 12.5C 4.6C 8.6C 1019.0 hPa 1015.0 hPa 0.0 mm          
24/05/2009 14.0C 6.3C 10.2C 1014.0 hPa 1011.0 hPa 4.0 mm          
25/05/2009 12.0C 9.8C 10.9C 1016.0 hPa 1016.0 hPa 4.0 mm          
26/05/2009 12.0C 9.8C 10.9C 1016.0 hPa 1016.0 hPa 0.0 mm          
27/05/2009 15.0C 9.7C 12.4C 1017.0 hPa 1016.0 hPa 0.0 mm          
28/05/2009 15.7C 7.8C 11.8C 1018.0 hPa 1018.0 hPa 0.0 mm          
29/05/2009 14.4C 8.7C 11.6C 1017.0 hPa 1016.0 hPa 2.7 mm          
30/05/2009 13.7C 10.0C 11.9C 1013.0 hPa 1006.0 hPa 12.1 mm          
Back to top 31/05/2009 13.8C 8.0C 10.9C 1013.0 hPa 1004.0 hPa 0.4 mm          
2008 Temperature Pressure Rain Wind
Maximum Minimum Average Maximum Minimum Day Total Maximum Rain Rate High Gust Highest Av Run
C C C hPa hPa mm mm/hr time km/h km/h km
01/05/2008 16.5C 12.7C 14.6C 1008.0 hPa 1005.0 hPa 9.9 mm          
02/05/2008 16.6C 10.9C 13.8C 1009.0 hPa 1007.0 hPa 0.9 mm          
03/05/2008 14.7C 10.4C 12.6C 1011.0 hPa 1008.0 hPa 3.1 mm          
04/05/2008 13.5C 9.7C 11.6C 1012.0 hPa 1007.0 hPa 19.8 mm          
05/05/2008 17.0C 12.1C 14.6C 1004.0 hPa 1004.0 hPa 33.3 mm          
06/05/2008 14.0C 10.8C 12.4C 1014.0 hPa 1009.0 hPa 0.9 mm          
07/05/2008 14.5C 8.1C 11.3C 1015.0 hPa 1013.0 hPa 0.0 mm          
08/05/2008 16.4C 7.9C 12.2C 1010.0 hPa 1004.0 hPa 0.0 mm          
09/05/2008 15.2C 11.5C 13.4C 996.0 hPa 993.0 hPa 13.5 mm          
10/05/2008 17.0C 11.0C 14.0C 998.0 hPa 995.0 hPa 0.0 mm          
11/05/2008 16.4C 11.2C 13.8C 1002.0 hPa 1002.0 hPa 2.2 mm          
12/05/2008 15.4C 9.9C 12.7C 1011.0 hPa 1006.0 hPa 0.9 mm          
13/05/2008 14.5C 6.5C 10.5C 1019.0 hPa 1016.0 hPa 0.0 mm          
14/05/2008 16.6C 10.0C 13.3C 1023.0 hPa 1021.0 hPa 0.0 mm          
15/05/2008 17.1C 9.3C 13.2C 1028.0 hPa 1026.0 hPa 0.0 mm          
16/05/2008 15.9C 9.1C 12.5C 1029.0 hPa 1028.0 hPa 0.0 mm          
17/05/2008 16.0C 9.2C 12.6C 1028.0 hPa 1026.0 hPa 0.0 mm          
18/05/2008 16.2C 9.2C 12.7C 1025.0 hPa 1024.0 hPa 0.0 mm          
19/05/2008 16.4C 9.8C 13.1C 1022.0 hPa 1019.0 hPa 0.9 mm          
20/05/2008 15.0C 10.9C 13.0C 1015.0 hPa 1010.0 hPa 3.6 mm          
21/05/2008 14.6C 11.7C 13.2C 1009.0 hPa 1009.0 hPa 0.0 mm          
22/05/2008 15.6C 9.8C 12.7C 1009.0 hPa 1006.0 hPa 0.0 mm          
23/05/2008 15.0C 9.0C 12.0C 1004.0 hPa 1001.0 hPa 0.0 mm          
24/05/2008 16.6C 9.6C 13.1C 1006.0 hPa 1002.0 hPa 0.0 mm          
25/05/2008 15.6C 8.4C 12.0C 1012.0 hPa 1010.0 hPa 0.0 mm          
26/05/2008 15.0C 9.0C 12.0C 1017.0 hPa 1015.0 hPa 6.3 mm          
27/05/2008 14.5C 6.1C 10.3C 1021.0 hPa 1019.0 hPa 0.0 mm          
28/05/2008 14.8C 7.2C 11.0C 1023.0 hPa 1022.0 hPa 0.0 mm          
29/05/2008 14.6C 8.7C 11.7C 1026.0 hPa 1024.0 hPa 2.2 mm          
30/05/2008 15.8C 9.6C 12.7C 1025.0 hPa 1024.0 hPa 5.4 mm          
Back to top 31/05/2008 15.8C 9.6C 12.7C 1025.0 hPa 1023.0 hPa 3.1 mm          
2007 Temperature Pressure Rain Wind
Maximum Minimum Average Maximum Minimum Day Total Maximum Rain Rate High Gust Highest Av Run
C C C hPa hPa mm mm/hr time km/h km/h km
01/05/2007 20.2C 15.4C 17.8C 1006.0 hPa 1005.0 hPa            
02/05/2007 19.1C 14.7C 16.9C 1005.0 hPa 1005.0 hPa            
03/05/2007 19.8C 13.8C 16.8C 1013.0 hPa 1006.0 hPa            
04/05/2007 19.2C 12.7C 16.0C 1018.0 hPa 1015.0 hPa            
05/05/2007 19.9C 12.3C 16.1C 1022.0 hPa 1019.0 hPa            
06/05/2007 19.7C 11.6C 15.7C 1022.0 hPa 1022.0 hPa            
07/05/2007 20.3C 12.6C 16.5C 1023.0 hPa 1021.0 hPa            
08/05/2007 20.8C 13.3C 17.1C 1028.0 hPa 1023.0 hPa            
09/05/2007 18.3C 9.9C 14.1C 1026.0 hPa 1026.0 hPa            
10/05/2007 16.8C 11.5C 14.2C 1022.0 hPa 1020.0 hPa            
11/05/2007 18.4C 11.2C 14.8C 1018.0 hPa 1014.0 hPa            
12/05/2007 16.4C 12.3C 14.4C 1018.0 hPa 1013.0 hPa            
13/05/2007 17.3C 9.4C 13.4C 1020.0 hPa 1019.0 hPa            
14/05/2007 16.0C 11.9C 14.0C 1019.0 hPa 1017.0 hPa            
15/05/2007 16.8C 12.8C 14.8C 1018.0 hPa 1018.0 hPa            
16/05/2007 18.9C 13.2C 16.1C 1016.0 hPa 1016.0 hPa            
17/05/2007 19.9C 12.7C 16.3C 1014.0 hPa 1014.0 hPa            
18/05/2007 18.0C 12.2C 15.1C 1019.0 hPa 1017.0 hPa            
19/05/2007 18.9C 11.3C 15.1C 1023.0 hPa 1021.0 hPa            
20/05/2007 17.9C 11.2C 14.6C 1023.0 hPa 1023.0 hPa            
21/05/2007 18.3C 13.6C 16.0C 1022.0 hPa 1022.0 hPa            
22/05/2007 19.7C 13.6C 16.7C 1020.0 hPa 1018.0 hPa            
23/05/2007 16.5C 13.2C 14.9C 1016.0 hPa 1014.0 hPa            
24/05/2007 19.2C 12.4C 15.8C 1017.0 hPa 1015.0 hPa            
25/05/2007 18.8C 11.4C 15.1C 1019.0 hPa 1016.0 hPa            
26/05/2007 16.7C 10.6C 13.7C 1017.0 hPa 1017.0 hPa            
27/05/2007 18.2C 12.5C 15.4C 1014.0 hPa 1014.0 hPa            
28/05/2007 18.3C 10.8C 14.6C 1024.0 hPa 1016.0 hPa            
29/05/2007 17.8C 8.7C 13.3C 1028.0 hPa 1025.0 hPa            
30/05/2007 17.8C 10.2C 14.0C 1030.0 hPa 1030.0 hPa            
Back to top 31/05/2007 17.2C 10.2C 13.7C 1029.0 hPa 1028.0 hPa